createdAt,value
2023-04-07T00:01:32.759Z,11.38
2023-04-07T00:04:35.987Z,17.17
2023-04-07T00:07:52.393Z,14.63
2023-04-07T00:11:01.125Z,16.58
2023-04-07T00:14:04.225Z,14.40
2023-04-07T00:17:06.959Z,16.73
2023-04-07T00:20:10.201Z,16.13
2023-04-07T00:23:14.249Z,17.40
2023-04-07T00:26:16.946Z,14.75
2023-04-07T00:29:20.495Z,13.67
2023-04-07T00:32:23.608Z,15.45
2023-04-07T00:35:26.995Z,11.73
2023-04-07T00:38:29.760Z,14.75
2023-04-07T00:41:35.560Z,16.67
2023-04-07T00:44:38.375Z,15.13
2023-04-07T00:47:41.233Z,15.48
2023-04-07T00:50:46.064Z,14.70
2023-04-07T00:53:50.007Z,16.35
2023-04-07T00:56:53.546Z,14.57
2023-04-07T00:59:56.547Z,15.27
2023-04-07T01:03:06.520Z,16.70
2023-04-07T01:06:14.933Z,14.20
2023-04-07T01:09:25.981Z,19.52
2023-04-07T01:12:44.753Z,16.80
2023-04-07T01:15:52.983Z,18.93
2023-04-07T01:19:32.302Z,15.80
2023-04-07T01:22:47.365Z,17.15
2023-04-07T01:26:14.424Z,15.85
2023-04-07T01:29:23.309Z,17.15
2023-04-07T01:32:27.789Z,13.83
2023-04-07T01:35:33.592Z,14.52
2023-04-07T01:38:37.992Z,15.88
2023-04-07T01:41:42.147Z,15.82
2023-04-07T01:44:46.960Z,16.23
2023-04-07T01:47:50.759Z,16.33
2023-04-07T01:50:56.319Z,18.35
2023-04-07T01:53:59.795Z,17.98
2023-04-07T01:57:02.605Z,18.92
2023-04-07T02:00:06.717Z,19.83
2023-04-07T02:03:40.711Z,15.70
2023-04-07T02:06:50.158Z,17.13
2023-04-07T02:10:00.784Z,18.40
2023-04-07T02:13:09.162Z,16.02
2023-04-07T02:16:13.255Z,16.35
2023-04-07T02:19:16.226Z,19.47
2023-04-07T02:22:19.152Z,17.67
2023-04-07T02:25:32.797Z,17.92
2023-04-07T02:28:35.607Z,18.08
2023-04-07T02:31:38.653Z,15.90
2023-04-07T02:34:42.120Z,16.37
2023-04-07T02:37:46.460Z,18.20
2023-04-07T02:40:49.188Z,14.23
2023-04-07T02:43:52.030Z,15.38
2023-04-07T02:46:54.813Z,15.48
2023-04-07T02:49:59.635Z,17.87
2023-04-07T02:53:02.357Z,17.00
2023-04-07T02:56:05.212Z,13.57
2023-04-07T02:59:08.435Z,15.68
2023-04-07T03:02:16.876Z,17.38
2023-04-07T03:05:19.744Z,19.07
2023-04-07T03:08:22.685Z,15.52
2023-04-07T03:11:26.296Z,18.90
2023-04-07T03:14:29.286Z,20.25
2023-04-07T03:17:32.227Z,16.58
2023-04-07T03:20:35.046Z,17.17
2023-04-07T03:23:43.720Z,18.30
2023-04-07T03:26:46.702Z,16.52
2023-04-07T03:30:08.753Z,15.00
2023-04-07T03:33:15.686Z,14.85
2023-04-07T03:36:18.752Z,16.50
2023-04-07T03:39:23.185Z,14.57
2023-04-07T03:42:30.121Z,17.92
2023-04-07T03:45:38.553Z,18.75
2023-04-07T03:48:44.796Z,12.43
2023-04-07T03:51:47.664Z,16.20
2023-04-07T03:54:53.228Z,15.10
2023-04-07T03:58:00.513Z,15.63
2023-04-07T04:01:07.950Z,12.85
2023-04-07T04:04:11.307Z,14.15
2023-04-07T04:07:14.414Z,15.00
2023-04-07T04:10:29.340Z,18.13
2023-04-07T04:13:33.703Z,14.50
2023-04-07T04:16:39.872Z,17.02
2023-04-07T04:19:56.480Z,15.35
2023-04-07T04:23:08.008Z,15.60
2023-04-07T04:26:11.736Z,14.80
2023-04-07T04:29:17.371Z,16.73
2023-04-07T04:32:21.466Z,14.98
2023-04-07T04:35:24.339Z,12.77
2023-04-07T04:38:39.959Z,15.70
2023-04-07T04:41:52.025Z,13.95
2023-04-07T04:44:56.541Z,16.48
2023-04-07T04:48:00.601Z,16.02
2023-04-07T04:51:03.581Z,14.25
2023-04-07T04:54:07.030Z,16.07
2023-04-07T04:57:10.606Z,16.90
2023-04-07T05:00:15.340Z,12.25
2023-04-07T05:03:21.246Z,15.90
2023-04-07T05:06:27.745Z,17.88
2023-04-07T05:09:41.604Z,14.83
2023-04-07T05:12:45.020Z,14.23
2023-04-07T05:15:47.875Z,13.93
2023-04-07T05:18:50.790Z,14.25
2023-04-07T05:21:54.384Z,17.25
2023-04-07T05:24:58.518Z,13.37
2023-04-07T05:28:01.739Z,14.00
2023-04-07T05:31:07.077Z,17.67
2023-04-07T05:34:11.522Z,17.17
2023-04-07T05:37:20.556Z,17.40
2023-04-07T05:40:24.705Z,14.57
2023-04-07T05:43:27.548Z,23.27
2023-04-07T05:46:30.866Z,15.20
2023-04-07T05:49:35.388Z,20.08
2023-04-07T05:52:42.412Z,20.67
2023-04-07T05:55:55.164Z,22.23
2023-04-07T05:59:11.081Z,20.40
2023-04-07T06:02:15.231Z,23.75
2023-04-07T06:05:20.485Z,23.65
2023-04-07T06:08:27.571Z,23.30
2023-04-07T06:11:30.544Z,25.80
2023-04-07T06:14:33.322Z,19.48
2023-04-07T06:17:36.429Z,21.52
2023-04-07T06:20:39.438Z,21.17
2023-04-07T06:23:42.303Z,20.98
2023-04-07T06:26:45.169Z,19.43
2023-04-07T06:29:48.281Z,20.65
2023-04-07T06:32:51.306Z,25.40
2023-04-07T06:35:54.277Z,24.98
2023-04-07T06:38:57.529Z,26.42
2023-04-07T06:42:01.806Z,26.13
2023-04-07T06:45:05.147Z,26.45
2023-04-07T06:48:08.076Z,24.52
2023-04-07T06:51:11.205Z,27.55
2023-04-07T06:54:14.963Z,28.45
2023-04-07T06:57:17.765Z,23.80
2023-04-07T07:00:23.205Z,30.58
2023-04-07T07:03:27.899Z,25.20
2023-04-07T07:06:31.771Z,24.88
2023-04-07T07:09:34.556Z,24.45
2023-04-07T07:12:37.672Z,27.27
2023-04-07T07:15:40.453Z,23.20
2023-04-07T07:18:43.282Z,27.08
2023-04-07T07:21:46.167Z,29.60
2023-04-07T07:24:48.907Z,33.35
2023-04-07T07:27:53.509Z,26.90
2023-04-07T07:30:56.682Z,26.67
2023-04-07T07:33:59.584Z,29.45
2023-04-07T07:37:02.281Z,27.17
2023-04-07T07:40:05.778Z,28.63
2023-04-07T07:43:09.410Z,26.27
2023-04-07T07:46:12.131Z,22.13
2023-04-07T07:49:15.089Z,23.50
2023-04-07T07:52:18.173Z,25.35
2023-04-07T07:55:21.128Z,25.58
2023-04-07T07:58:23.875Z,29.23
2023-04-07T08:01:26.874Z,30.35
2023-04-07T08:04:29.824Z,26.65
2023-04-07T08:07:32.827Z,24.63
2023-04-07T08:10:35.815Z,23.63
2023-04-07T08:13:38.700Z,27.23
2023-04-07T08:16:41.600Z,23.20
2023-04-07T08:19:44.481Z,24.65
2023-04-07T08:22:47.270Z,22.67
2023-04-07T08:25:50.028Z,25.48
2023-04-07T08:28:53.730Z,24.33
2023-04-07T08:31:57.057Z,28.38
2023-04-07T08:34:59.820Z,15.32
2023-04-07T08:38:03.663Z,17.30
2023-04-07T08:41:14.669Z,18.42
2023-04-07T08:44:20.824Z,21.70
2023-04-07T08:47:26.869Z,22.73
2023-04-07T08:50:29.692Z,25.13
2023-04-07T08:53:44.198Z,32.53
2023-04-07T08:56:50.520Z,22.88
2023-04-07T08:59:54.444Z,20.93
2023-04-07T09:02:57.329Z,19.63
2023-04-07T09:06:02.942Z,27.48
2023-04-07T09:09:08.734Z,26.17
2023-04-07T09:12:12.134Z,21.05
2023-04-07T09:15:14.898Z,22.40
2023-04-07T09:18:18.132Z,20.25
2023-04-07T09:21:21.133Z,27.58
2023-04-07T09:24:26.130Z,22.13
2023-04-07T09:27:28.954Z,23.90
2023-04-07T09:30:33.841Z,17.53
2023-04-07T09:33:37.154Z,20.48
2023-04-07T09:36:42.875Z,21.40
2023-04-07T09:39:53.955Z,19.63
2023-04-07T09:42:58.548Z,19.90
2023-04-07T09:46:11.729Z,17.00
2023-04-07T09:49:14.711Z,23.95
2023-04-07T09:52:18.500Z,24.05
2023-04-07T09:55:22.985Z,23.38
2023-04-07T09:58:25.976Z,24.20
2023-04-07T10:01:28.819Z,21.60
2023-04-07T10:04:32.235Z,18.90
2023-04-07T10:07:36.682Z,22.13
2023-04-07T10:10:43.375Z,19.95
2023-04-07T10:13:46.784Z,21.85
2023-04-07T10:16:50.200Z,18.27
2023-04-07T10:19:53.468Z,17.25
2023-04-07T10:23:05.997Z,21.42
2023-04-07T10:26:09.431Z,20.05
2023-04-07T10:29:15.174Z,22.45
2023-04-07T10:32:17.965Z,21.10
2023-04-07T10:35:22.290Z,21.15
2023-04-07T10:38:25.177Z,19.40
2023-04-07T10:41:35.674Z,19.83
2023-04-07T10:44:46.763Z,22.13
2023-04-07T10:48:10.803Z,25.90
2023-04-07T10:51:17.539Z,21.33
2023-04-07T10:54:22.859Z,20.17
2023-04-07T10:57:25.834Z,24.58
2023-04-07T11:00:28.837Z,20.13
2023-04-07T11:03:34.770Z,17.23
2023-04-07T11:06:47.894Z,19.95
2023-04-07T11:09:51.167Z,17.50
2023-04-07T11:13:02.239Z,18.33
2023-04-07T11:16:05.463Z,18.42
2023-04-07T11:19:08.540Z,17.93
2023-04-07T11:22:28.620Z,19.77
2023-04-07T11:25:33.469Z,22.33
2023-04-07T11:28:46.163Z,20.13
2023-04-07T11:31:49.029Z,19.95
2023-04-07T11:34:52.519Z,23.07
2023-04-07T11:38:02.852Z,25.30
2023-04-07T11:41:13.408Z,20.50
2023-04-07T11:44:16.171Z,21.77
2023-04-07T11:47:18.985Z,21.60
2023-04-07T11:50:41.539Z,20.13
2023-04-07T11:53:44.875Z,21.02
2023-04-07T11:56:48.388Z,21.20
2023-04-07T11:59:51.112Z,21.60
2023-04-07T12:02:53.996Z,24.40
2023-04-07T12:05:56.942Z,19.87
2023-04-07T12:08:59.733Z,24.10
2023-04-07T12:12:05.811Z,24.90
2023-04-07T12:15:08.905Z,22.65
2023-04-07T12:18:16.009Z,22.98
2023-04-07T12:21:26.893Z,24.57
2023-04-07T12:24:29.907Z,21.27
2023-04-07T12:27:42.186Z,19.60
2023-04-07T12:30:46.460Z,23.38
2023-04-07T12:33:49.708Z,27.00
2023-04-07T12:36:52.926Z,26.17
2023-04-07T12:39:55.918Z,22.42
2023-04-07T12:42:58.686Z,20.30
2023-04-07T12:46:01.397Z,24.35
2023-04-07T12:49:04.283Z,21.08
2023-04-07T12:52:07.260Z,24.97
2023-04-07T12:55:10.004Z,23.13
2023-04-07T12:58:13.717Z,22.63
2023-04-07T13:01:17.139Z,21.90
2023-04-07T13:04:20.323Z,19.05
2023-04-07T13:07:23.117Z,23.67
2023-04-07T13:10:28.822Z,21.73
2023-04-07T13:13:32.387Z,21.15
2023-04-07T13:16:35.292Z,21.50
2023-04-07T13:19:38.467Z,25.73
2023-04-07T13:22:49.207Z,26.27
2023-04-07T13:25:59.728Z,24.67
2023-04-07T13:29:02.592Z,25.17
2023-04-07T13:32:07.147Z,26.38
2023-04-07T13:46:20.866Z,28.67
2023-04-07T13:49:30.186Z,29.50
2023-04-07T13:52:35.532Z,26.58
2023-04-07T13:55:39.641Z,23.40
2023-04-07T13:58:42.482Z,27.80
2023-04-07T14:01:45.413Z,32.70
2023-04-07T14:04:48.258Z,21.10
2023-04-07T14:07:51.284Z,22.73
2023-04-07T14:10:54.284Z,25.67
2023-04-07T14:13:57.396Z,26.92
2023-04-07T14:17:00.274Z,26.33
2023-04-07T14:20:03.445Z,24.80
2023-04-07T14:23:06.524Z,23.48
2023-04-07T14:26:13.335Z,24.23
2023-04-07T14:29:16.124Z,24.52
2023-04-07T14:32:18.832Z,24.53
2023-04-07T14:35:21.809Z,24.25
2023-04-07T14:38:26.076Z,27.70
2023-04-07T14:41:29.922Z,30.67
2023-04-07T14:44:33.333Z,28.92
2023-04-07T14:47:36.141Z,33.67
2023-04-07T14:50:40.502Z,47.72
2023-04-07T14:53:43.680Z,28.35
2023-04-07T14:56:46.513Z,21.30
2023-04-07T14:59:49.396Z,26.00
2023-04-07T15:02:54.440Z,25.40
2023-04-07T15:05:58.195Z,25.63
2023-04-07T15:09:00.937Z,23.38
2023-04-07T15:12:05.257Z,26.67
2023-04-07T15:15:08.204Z,29.58
2023-04-07T15:18:11.501Z,30.80
2023-04-07T15:21:15.737Z,25.30
2023-04-07T15:24:19.715Z,25.48
2023-04-07T15:27:22.434Z,46.17
2023-04-07T15:30:26.435Z,34.97
2023-04-07T15:33:29.244Z,30.40
2023-04-07T15:36:32.282Z,24.30
2023-04-07T15:39:35.027Z,34.65
2023-04-07T15:42:41.779Z,34.47
2023-04-07T15:45:45.137Z,24.35
2023-04-07T15:48:48.114Z,22.37
2023-04-07T15:51:51.395Z,22.77
2023-04-07T15:54:54.198Z,20.75
2023-04-07T15:57:56.964Z,22.98
2023-04-07T16:01:00.612Z,23.77
2023-04-07T16:04:03.804Z,23.13
2023-04-07T16:07:06.703Z,22.90
2023-04-07T16:10:10.237Z,25.85
2023-04-07T16:13:13.067Z,27.77
2023-04-07T16:16:16.009Z,24.50
2023-04-07T16:19:18.857Z,26.03
2023-04-07T16:22:21.853Z,26.52
2023-04-07T16:25:24.622Z,23.83
2023-04-07T16:28:27.409Z,23.30
2023-04-07T16:31:30.164Z,25.60
2023-04-07T16:34:33.050Z,23.63
2023-04-07T16:37:35.770Z,23.42
2023-04-07T16:40:39.508Z,27.50
2023-04-07T16:43:42.327Z,22.33
2023-04-07T16:46:45.083Z,23.00
2023-04-07T16:49:47.925Z,21.83
2023-04-07T16:52:50.669Z,23.02
2023-04-07T16:55:53.422Z,18.75
2023-04-07T16:58:56.627Z,19.88
2023-04-07T17:01:59.467Z,20.23
2023-04-07T17:05:02.362Z,17.97
2023-04-07T17:08:05.102Z,15.63
2023-04-07T17:11:08.985Z,17.52
2023-04-07T17:14:11.662Z,21.60
2023-04-07T17:17:14.379Z,18.92
2023-04-07T17:20:19.741Z,16.37
2023-04-07T17:23:22.632Z,19.50
2023-04-07T17:26:26.141Z,18.00
2023-04-07T17:29:31.388Z,21.20
2023-04-07T17:32:34.421Z,17.27
2023-04-07T17:35:37.322Z,19.30
2023-04-07T17:38:40.554Z,16.85
2023-04-07T17:41:43.534Z,19.52
2023-04-07T17:44:47.089Z,17.30
2023-04-07T17:47:49.905Z,19.50
2023-04-07T17:51:00.991Z,19.93
2023-04-07T17:54:03.913Z,21.50
2023-04-07T17:57:07.229Z,22.65
2023-04-07T18:00:10.637Z,21.80
2023-04-07T18:03:16.819Z,22.50
2023-04-07T18:06:20.096Z,24.13
2023-04-07T18:09:22.904Z,25.17
2023-04-07T18:12:25.743Z,23.73
2023-04-07T18:15:28.530Z,23.70
2023-04-07T18:18:31.278Z,25.45
2023-04-07T18:21:35.205Z,23.47
2023-04-07T18:24:38.256Z,25.23
2023-04-07T18:27:41.031Z,23.85
2023-04-07T18:30:43.857Z,21.92
2023-04-07T18:33:48.101Z,20.88
2023-04-07T18:36:51.726Z,24.03
2023-04-07T18:39:54.783Z,25.35
2023-04-07T18:42:57.571Z,24.60
2023-04-07T18:46:02.056Z,23.83
2023-04-07T18:49:04.941Z,22.27
2023-04-07T18:52:08.218Z,25.83
2023-04-07T18:55:11.226Z,38.08
2023-04-07T18:58:14.811Z,32.17
2023-04-07T19:01:17.663Z,45.03
2023-04-07T19:04:21.095Z,65.35
2023-04-07T19:07:23.929Z,68.17
2023-04-07T19:10:27.009Z,45.83
2023-04-07T19:13:29.878Z,33.45
2023-04-07T19:16:34.790Z,29.23
2023-04-07T19:19:37.760Z,27.80
2023-04-07T19:22:40.680Z,28.67
2023-04-07T19:25:45.702Z,30.70
2023-04-07T19:28:49.947Z,27.42
2023-04-07T19:31:53.804Z,38.47
2023-04-07T19:34:56.597Z,31.88
2023-04-07T19:37:59.492Z,34.73
2023-04-07T19:41:03.200Z,35.60
2023-04-07T19:44:05.977Z,36.22
2023-04-07T19:47:09.264Z,32.45
2023-04-07T19:50:12.097Z,29.17
2023-04-07T19:53:16.800Z,28.80
2023-04-07T19:56:19.794Z,34.80
2023-04-07T19:59:22.552Z,32.20
2023-04-07T20:02:25.780Z,38.97
2023-04-07T20:05:29.001Z,39.38
2023-04-07T20:08:31.768Z,37.20
2023-04-07T20:11:34.574Z,34.17
2023-04-07T20:14:37.849Z,29.45
2023-04-07T20:17:41.309Z,28.65
2023-04-07T20:20:45.918Z,34.78
2023-04-07T20:23:48.704Z,29.80
2023-04-07T20:26:51.654Z,34.28
2023-04-07T20:29:54.382Z,32.25
2023-04-07T20:32:57.452Z,36.20
2023-04-07T20:36:00.442Z,30.05
2023-04-07T20:39:03.329Z,32.70
2023-04-07T20:42:06.077Z,36.67
2023-04-07T20:45:09.714Z,38.08
2023-04-07T20:48:13.294Z,32.50
2023-04-07T20:51:16.255Z,35.53
2023-04-07T20:54:18.969Z,36.80
2023-04-07T20:57:22.032Z,36.03
2023-04-07T21:00:27.190Z,31.83
2023-04-07T21:03:31.026Z,34.38
2023-04-07T21:06:33.864Z,33.05
2023-04-07T21:09:36.645Z,32.73
2023-04-07T21:12:39.453Z,31.02
2023-04-07T21:15:43.981Z,34.00
2023-04-07T21:18:47.011Z,33.30
2023-04-07T21:21:50.116Z,36.75
2023-04-07T21:24:54.349Z,33.07
2023-04-07T21:27:57.865Z,31.23
2023-04-07T21:31:01.379Z,31.13
2023-04-07T21:34:04.283Z,28.80
2023-04-07T21:37:07.696Z,26.70
2023-04-07T21:40:10.984Z,29.97
2023-04-07T21:43:16.150Z,27.35
2023-04-07T21:46:19.260Z,28.73
2023-04-07T21:49:22.535Z,26.15
2023-04-07T21:52:26.525Z,29.63
2023-04-07T21:55:29.246Z,26.10
2023-04-07T21:58:31.968Z,30.73
2023-04-07T22:01:34.845Z,32.78
2023-04-07T22:04:38.021Z,26.98
2023-04-07T22:07:40.881Z,31.23
2023-04-07T22:10:45.184Z,29.60
2023-04-07T22:13:48.093Z,29.38
2023-04-07T22:16:52.174Z,29.90
2023-04-07T22:19:55.128Z,30.75
2023-04-07T22:22:58.144Z,26.40
2023-04-07T22:26:01.350Z,28.07
2023-04-07T22:29:04.198Z,29.50
2023-04-07T22:32:06.885Z,27.23
2023-04-07T22:35:09.989Z,28.35
2023-04-07T22:38:13.687Z,27.65
2023-04-07T22:41:16.650Z,32.97
2023-04-07T22:44:19.504Z,31.60
2023-04-07T22:47:22.622Z,33.22
2023-04-07T22:50:26.194Z,32.63
2023-04-07T22:53:29.002Z,32.88
2023-04-07T22:56:31.874Z,29.47
2023-04-07T22:59:35.009Z,33.45
2023-04-07T23:02:38.838Z,36.90
2023-04-07T23:05:41.884Z,31.42
2023-04-07T23:08:45.595Z,30.13
2023-04-07T23:11:48.920Z,31.93
2023-04-07T23:14:52.578Z,34.50
2023-04-07T23:17:55.686Z,33.80
2023-04-07T23:20:58.636Z,35.15
2023-04-07T23:24:01.806Z,33.90
2023-04-07T23:27:04.565Z,35.03
2023-04-07T23:30:08.433Z,35.58
2023-04-07T23:33:11.359Z,37.70
2023-04-07T23:36:14.100Z,42.92
2023-04-07T23:39:17.073Z,38.63
2023-04-07T23:42:20.099Z,41.07
2023-04-07T23:45:23.118Z,36.60
2023-04-07T23:48:26.661Z,42.28
2023-04-07T23:51:30.563Z,39.55
2023-04-07T23:54:33.450Z,38.75
2023-04-07T23:57:36.228Z,41.93
